Time;durP1;ratioP1;P1;durP2;ratioP2;P2;SDS_P1;SDS_P2;PMS_P1;PMS_P2;Temp;Humidity;BMP_temperature;BMP_pressure;BME280_temperature;BME280_humidity;BME280_pressure;Samples;Min_cycle;Max_cycle;Signal;HPM_P1;HPM_P2
2021/08/10 00:00:59;;;;;;;7.37;4.97;;;17.30;99.90;;;;;;5053396;28;20177;-79
2021/08/10 00:03:25;;;;;;;7.13;5.03;;;17.20;99.90;;;;;;5053514;28;20546;-80
2021/08/10 00:05:51;;;;;;;8.33;5.53;;;17.20;99.90;;;;;;5053370;28;20327;-78
2021/08/10 00:08:20;;;;;;;8.03;5.40;;;17.30;99.90;;;;;;5053301;28;20177;-78
2021/08/10 00:10:48;;;;;;;8.77;5.13;;;17.20;99.90;;;;;;5053061;28;20169;-77
2021/08/10 00:13:15;;;;;;;9.50;5.40;;;17.10;99.90;;;;;;5053485;28;20172;-79
2021/08/10 00:15:41;;;;;;;8.90;5.13;;;17.10;99.90;;;;;;5053134;28;20169;-78
2021/08/10 00:18:08;;;;;;;10.60;4.63;;;16.90;99.90;;;;;;5053540;28;20550;-80
2021/08/10 00:20:34;;;;;;;7.63;4.17;;;17.00;99.90;;;;;;5035546;28;20178;-81
2021/08/10 00:23:00;;;;;;;5.80;3.57;;;17.10;99.90;;;;;;5052930;28;20314;-78
2021/08/10 00:25:26;;;;;;;4.90;3.13;;;16.90;99.90;;;;;;5035272;28;20679;-78
2021/08/10 00:27:52;;;;;;;5.67;3.13;;;16.90;99.90;;;;;;5057775;28;20188;-78
2021/08/10 00:30:17;;;;;;;4.40;2.57;;;16.90;99.90;;;;;;5061366;28;20169;-77
2021/08/10 00:32:43;;;;;;;5.20;2.90;;;16.80;99.90;;;;;;5052759;28;20688;-79
2021/08/10 00:35:09;;;;;;;6.50;3.20;;;16.60;99.90;;;;;;5053214;28;20223;-79
2021/08/10 00:37:35;;;;;;;5.73;3.10;;;16.50;99.90;;;;;;5052966;28;20209;-79
2021/08/10 00:40:00;;;;;;;5.93;2.90;;;16.40;99.90;;;;;;5053678;28;20184;-78
2021/08/10 00:42:26;;;;;;;7.33;2.93;;;16.40;99.90;;;;;;5053299;28;20548;-81
2021/08/10 00:44:51;;;;;;;4.43;2.77;;;16.40;99.90;;;;;;5052796;28;20190;-79
2021/08/10 00:47:17;;;;;;;4.83;3.03;;;16.50;99.90;;;;;;5053048;28;20630;-80
2021/08/10 00:49:43;;;;;;;5.37;2.87;;;16.40;99.90;;;;;;5052870;28;20177;-79
2021/08/10 00:52:08;;;;;;;5.83;3.60;;;16.50;99.90;;;;;;5052725;28;20170;-79
2021/08/10 00:54:34;;;;;;;5.87;3.13;;;16.20;99.90;;;;;;5052745;28;20173;-78
2021/08/10 00:57:00;;;;;;;4.13;2.60;;;16.20;99.90;;;;;;5051519;28;20220;-79
2021/08/10 00:59:27;;;;;;;5.53;3.00;;;16.30;99.90;;;;;;5052733;28;20256;-79
2021/08/10 01:01:52;;;;;;;4.53;3.20;;;16.50;99.90;;;;;;5053045;28;20188;-79
2021/08/10 01:04:18;;;;;;;4.80;2.90;;;16.60;99.90;;;;;;5053032;28;20169;-81
2021/08/10 01:06:56;;;;;;;5.13;3.13;;;16.60;99.90;;;;;;5056512;28;20173;-79
2021/08/10 01:09:34;;;;;;;6.07;3.23;;;16.70;99.90;;;;;;5038863;28;20173;-80
2021/08/10 01:12:08;;;;;;;7.60;3.07;;;16.80;99.90;;;;;;5056880;28;20251;-77
2021/08/10 01:14:53;;;;;;;4.90;3.10;;;16.50;99.90;;;;;;5056483;28;20212;-79
2021/08/10 01:17:37;;;;;;;5.47;2.77;;;16.40;99.90;;;;;;5056540;28;20236;-78
2021/08/10 01:20:28;;;;;;;4.97;3.47;;;16.30;99.90;;;;;;5056612;28;20242;-78
2021/08/10 01:22:55;;;;;;;6.83;3.10;;;16.20;99.90;;;;;;5038333;28;20177;-78
2021/08/10 01:25:38;;;;;;;6.50;3.27;;;16.10;99.90;;;;;;5056196;28;20250;-78
2021/08/10 01:28:21;;;;;;;4.23;3.00;;;16.10;99.90;;;;;;5056394;28;20165;-79
2021/08/10 01:31:05;;;;;;;5.33;3.40;;;16.10;99.90;;;;;;5056321;28;20191;-81
2021/08/10 01:33:34;;;;;;;7.33;3.60;;;16.10;99.90;;;;;;5056272;28;20180;-77
2021/08/10 01:36:01;;;;;;;7.43;3.37;;;16.10;99.90;;;;;;5055712;28;20173;-78
2021/08/10 01:38:29;;;;;;;6.30;3.27;;;16.10;99.90;;;;;;5056100;28;20172;-78
2021/08/10 01:40:57;;;;;;;4.47;3.00;;;16.10;99.90;;;;;;5054602;28;20641;-78
2021/08/10 01:43:23;;;;;;;6.97;3.33;;;16.00;99.90;;;;;;5056516;28;20173;-77
2021/08/10 01:45:50;;;;;;;5.10;3.53;;;16.10;99.90;;;;;;5067049;28;20184;-77
2021/08/10 01:48:17;;;;;;;6.47;3.50;;;16.10;99.90;;;;;;5080557;28;20241;-76
2021/08/10 01:50:45;;;;;;;5.73;3.67;;;16.10;99.90;;;;;;5060297;28;20169;-77
2021/08/10 01:53:12;;;;;;;4.63;3.33;;;16.00;99.90;;;;;;5041135;28;20172;-79
2021/08/10 01:55:41;;;;;;;5.13;3.90;;;16.00;99.90;;;;;;5038332;28;20173;-77
2021/08/10 01:58:07;;;;;;;5.50;4.03;;;16.10;99.90;;;;;;5056218;28;20169;-78
2021/08/10 02:00:36;;;;;;;6.90;3.87;;;16.00;99.90;;;;;;5055727;28;20188;-78
2021/08/10 02:03:08;;;;;;;6.93;4.10;;;16.20;99.90;;;;;;5055939;28;20179;-77
2021/08/10 02:05:35;;;;;;;7.27;4.13;;;16.20;99.90;;;;;;5055787;28;20204;-77
2021/08/10 02:08:02;;;;;;;6.03;4.00;;;16.20;99.90;;;;;;5073044;28;20212;-75
2021/08/10 02:10:29;;;;;;;7.70;3.70;;;16.10;99.90;;;;;;5079902;28;20173;-74
2021/08/10 02:12:57;;;;;;;10.67;4.47;;;16.10;99.90;;;;;;5061919;28;20177;-77
2021/08/10 02:15:23;;;;;;;10.13;4.37;;;16.10;99.90;;;;;;5055216;28;20183;-76
2021/08/10 02:17:51;;;;;;;6.37;4.20;;;16.20;99.90;;;;;;5057201;28;20209;-76
2021/08/10 02:20:17;;;;;;;5.63;4.07;;;16.20;99.90;;;;;;5058566;28;20167;-76
2021/08/10 02:22:45;;;;;;;5.93;3.93;;;16.30;99.90;;;;;;5056050;28;20176;-77
2021/08/10 02:25:13;;;;;;;7.03;4.37;;;16.30;99.90;;;;;;5055316;28;20169;-77
2021/08/10 02:27:52;;;;;;;7.10;4.40;;;16.20;99.90;;;;;;5055083;28;20173;-76
2021/08/10 02:30:22;;;;;;;7.57;4.30;;;16.10;99.90;;;;;;5055409;28;20231;-77
2021/08/10 02:32:49;;;;;;;7.13;4.50;;;16.10;99.90;;;;;;5055190;28;20173;-77
2021/08/10 02:35:24;;;;;;;7.43;4.67;;;16.10;99.90;;;;;;5055064;28;20157;-77
2021/08/10 02:37:52;;;;;;;7.40;4.57;;;16.10;99.90;;;;;;5055422;28;20257;-77
2021/08/10 02:40:19;;;;;;;6.33;4.27;;;16.00;99.90;;;;;;5055672;28;20502;-78
2021/08/10 02:42:50;;;;;;;6.53;4.50;;;15.90;99.90;;;;;;5055200;28;20637;-78
2021/08/10 02:45:16;;;;;;;9.87;4.53;;;16.00;99.90;;;;;;5062361;28;20180;-77
2021/08/10 02:47:53;;;;;;;7.20;4.20;;;15.90;99.90;;;;;;5065762;28;20166;-77
2021/08/10 02:50:20;;;;;;;8.20;4.93;;;16.00;99.90;;;;;;5060514;28;20238;-79
2021/08/10 02:52:46;;;;;;;12.03;5.10;;;16.00;99.90;;;;;;5054930;28;20189;-77
2021/08/10 02:55:12;;;;;;;9.87;4.70;;;16.10;99.90;;;;;;5055016;28;20668;-76
2021/08/10 02:58:00;;;;;;;7.30;4.60;;;16.20;99.90;;;;;;5054776;28;20208;-77
2021/08/10 03:00:28;;;;;;;7.23;4.93;;;16.00;99.90;;;;;;5055615;28;20239;-77
2021/08/10 03:02:59;;;;;;;5.63;4.03;;;16.00;99.90;;;;;;5055557;28;20189;-76
2021/08/10 03:05:28;;;;;;;6.40;4.33;;;16.00;99.90;;;;;;5057540;28;20217;-78
2021/08/10 03:07:58;;;;;;;9.13;4.70;;;16.00;99.90;;;;;;5056733;28;20697;-77
2021/08/10 03:10:26;;;;;;;9.60;5.30;;;16.00;99.90;;;;;;5054968;28;20165;-78
2021/08/10 03:12:53;;;;;;;6.77;4.30;;;16.10;99.90;;;;;;5036405;28;20645;-79
2021/08/10 03:15:27;;;;;;;8.80;4.70;;;16.10;99.90;;;;;;5054308;28;20162;-78
2021/08/10 03:17:57;;;;;;;8.13;4.63;;;16.10;99.90;;;;;;5036164;28;20204;-78
2021/08/10 03:20:23;;;;;;;6.70;4.10;;;16.00;99.90;;;;;;5054507;28;20161;-77
2021/08/10 03:22:51;;;;;;;7.87;4.57;;;16.00;99.90;;;;;;5054138;28;20169;-78
2021/08/10 03:25:19;;;;;;;7.27;4.77;;;15.90;99.90;;;;;;5053974;28;20184;-79
2021/08/10 03:27:49;;;;;;;6.40;4.80;;;15.90;99.90;;;;;;5053269;28;20161;-79
2021/08/10 03:30:16;;;;;;;8.07;4.73;;;15.90;99.90;;;;;;5054043;28;20268;-78
2021/08/10 03:32:44;;;;;;;6.80;4.80;;;15.90;99.90;;;;;;5053920;28;20223;-81
2021/08/10 03:35:10;;;;;;;8.03;4.57;;;15.90;99.90;;;;;;5054037;28;20172;-77
2021/08/10 03:37:37;;;;;;;8.23;5.00;;;15.90;99.90;;;;;;5053944;28;20205;-80
2021/08/10 03:40:03;;;;;;;6.40;4.63;;;15.90;99.90;;;;;;5053989;28;20171;-78
2021/08/10 03:42:29;;;;;;;5.73;4.23;;;15.90;99.90;;;;;;5053777;28;20295;-79
2021/08/10 03:44:56;;;;;;;8.00;4.83;;;15.90;99.90;;;;;;5053932;28;20174;-79
2021/08/10 03:47:22;;;;;;;6.57;4.03;;;15.90;99.90;;;;;;5055934;28;20169;-78
2021/08/10 03:49:51;;;;;;;5.97;4.07;;;16.00;99.90;;;;;;5056766;28;20236;-80
2021/08/10 03:52:17;;;;;;;7.20;4.33;;;15.90;99.90;;;;;;5057907;28;20169;-82
2021/08/10 03:54:43;;;;;;;6.40;3.97;;;16.00;99.90;;;;;;5055920;28;20168;-82
2021/08/10 03:57:20;;;;;;;6.47;4.17;;;15.70;99.90;;;;;;5054262;28;20565;-80
2021/08/10 03:59:51;;;;;;;7.00;4.13;;;15.90;99.90;;;;;;5054008;28;20222;-82
2021/08/10 04:02:18;;;;;;;6.83;4.13;;;15.80;99.90;;;;;;5053389;28;20173;-79
2021/08/10 04:04:45;;;;;;;7.50;4.17;;;15.80;99.90;;;;;;5052785;28;20173;-82
2021/08/10 04:07:12;;;;;;;7.67;4.70;;;15.70;99.90;;;;;;5053854;28;20642;-80
2021/08/10 04:09:38;;;;;;;6.83;4.23;;;15.80;99.90;;;;;;5053545;28;20552;-81
2021/08/10 04:12:05;;;;;;;8.70;4.30;;;15.70;99.90;;;;;;5055186;28;20181;-77
2021/08/10 04:14:33;;;;;;;7.30;4.40;;;15.70;99.90;;;;;;5053173;28;20165;-79
2021/08/10 04:17:07;;;;;;;9.03;4.50;;;15.70;99.90;;;;;;5035159;28;20270;-79
2021/08/10 04:19:45;;;;;;;7.23;4.77;;;15.70;99.90;;;;;;5053407;28;20528;-79
2021/08/10 04:22:11;;;;;;;8.20;4.97;;;15.80;99.90;;;;;;5053204;28;20165;-78
2021/08/10 04:24:37;;;;;;;6.87;4.60;;;15.90;99.90;;;;;;5053183;28;20184;-78
2021/08/10 04:27:03;;;;;;;7.23;4.63;;;15.80;99.90;;;;;;5053224;28;20197;-78
2021/08/10 04:29:29;;;;;;;7.67;4.73;;;15.80;99.90;;;;;;5052649;28;20184;-79
2021/08/10 04:31:55;;;;;;;6.27;4.50;;;15.80;99.90;;;;;;5053292;28;20176;-79
2021/08/10 04:34:20;;;;;;;6.43;4.57;;;15.80;99.90;;;;;;5052977;28;20173;-79
2021/08/10 04:36:46;;;;;;;6.73;4.57;;;15.90;99.90;;;;;;5053135;28;20289;-78
2021/08/10 04:39:12;;;;;;;7.10;4.80;;;15.90;99.90;;;;;;5056441;28;20179;-78
2021/08/10 04:41:37;;;;;;;11.97;4.93;;;16.00;99.90;;;;;;5062941;28;20294;-78
2021/08/10 04:44:03;;;;;;;5.87;4.60;;;16.00;99.90;;;;;;5063522;28;20165;-78
2021/08/10 04:46:29;;;;;;;6.27;4.53;;;16.00;99.90;;;;;;5063590;28;20659;-79
2021/08/10 04:48:55;;;;;;;8.63;5.67;;;16.10;99.90;;;;;;5062641;28;20267;-78
2021/08/10 04:51:21;;;;;;;8.30;5.30;;;16.10;99.90;;;;;;5063924;28;20624;-76
2021/08/10 04:53:46;;;;;;;9.50;5.50;;;16.20;99.90;;;;;;5075948;28;20178;-78
2021/08/10 04:56:12;;;;;;;8.40;5.33;;;16.20;99.90;;;;;;5066269;28;20211;-79
2021/08/10 04:58:39;;;;;;;10.83;5.90;;;16.20;99.90;;;;;;5062476;28;20614;-77
2021/08/10 05:01:05;;;;;;;10.23;5.23;;;16.20;99.90;;;;;;5059984;28;20177;-78
2021/08/10 05:03:32;;;;;;;9.67;6.00;;;16.30;99.90;;;;;;5059766;28;20550;-77
2021/08/10 05:05:58;;;;;;;14.97;6.93;;;16.30;99.90;;;;;;5059661;28;20254;-78
2021/08/10 05:08:24;;;;;;;15.07;6.53;;;16.30;99.90;;;;;;5059639;28;20768;-77
2021/08/10 05:10:51;;;;;;;12.13;6.40;;;16.50;99.90;;;;;;5060127;28;20173;-77
2021/08/10 05:13:17;;;;;;;11.63;6.03;;;16.30;99.90;;;;;;5068604;28;20239;-77
2021/08/10 05:15:43;;;;;;;9.90;6.00;;;16.40;99.90;;;;;;5076860;28;20177;-77
2021/08/10 05:18:08;;;;;;;9.90;5.77;;;16.70;99.90;;;;;;5063582;28;20213;-77
2021/08/10 05:20:34;;;;;;;10.97;6.30;;;16.60;99.90;;;;;;5059536;28;20178;-77
2021/08/10 05:23:01;;;;;;;11.43;6.00;;;16.60;99.90;;;;;;5041401;28;20185;-79
2021/08/10 05:25:27;;;;;;;10.70;6.50;;;16.70;99.90;;;;;;5059741;28;20247;-78
2021/08/10 05:27:52;;;;;;;9.70;6.37;;;16.50;99.90;;;;;;5059070;28;20630;-81
2021/08/10 05:30:19;;;;;;;10.17;5.90;;;16.50;99.90;;;;;;5041278;28;20621;-77
2021/08/10 05:32:45;;;;;;;10.20;6.87;;;16.60;99.90;;;;;;5059257;28;20210;-79
2021/08/10 05:35:10;;;;;;;10.77;6.50;;;16.50;99.90;;;;;;5059174;28;20260;-79
2021/08/10 05:37:36;;;;;;;11.57;6.13;;;16.50;99.90;;;;;;5059207;28;20216;-78
2021/08/10 05:40:03;;;;;;;11.50;6.27;;;16.40;99.90;;;;;;5059283;28;20169;-79
2021/08/10 05:42:28;;;;;;;11.77;6.50;;;16.50;99.90;;;;;;5058135;28;20547;-79
2021/08/10 05:44:54;;;;;;;12.00;6.77;;;16.70;99.90;;;;;;5059013;28;20187;-78
2021/08/10 05:47:20;;;;;;;9.60;6.27;;;16.90;99.90;;;;;;5058981;28;20180;-78
2021/08/10 05:49:46;;;;;;;10.83;6.20;;;16.90;99.90;;;;;;5058526;28;20165;-78
2021/08/10 05:52:12;;;;;;;12.53;6.00;;;17.00;99.90;;;;;;5055525;28;20264;-77
2021/08/10 05:54:38;;;;;;;11.17;6.40;;;16.90;99.90;;;;;;5056004;28;20173;-79
2021/08/10 05:57:04;;;;;;;9.13;6.20;;;16.90;99.90;;;;;;5055287;28;20208;-78
2021/08/10 05:59:30;;;;;;;9.97;6.47;;;16.80;99.90;;;;;;5055914;28;20697;-78
2021/08/10 06:01:57;;;;;;;15.87;6.07;;;16.80;99.90;;;;;;5055969;28;20199;-79
2021/08/10 06:04:23;;;;;;;11.40;7.67;;;16.60;99.90;;;;;;5054690;28;20592;-79
2021/08/10 06:06:49;;;;;;;13.93;6.60;;;16.60;99.90;;;;;;5054467;28;20277;-78
2021/08/10 06:09:15;;;;;;;9.87;6.17;;;16.60;99.90;;;;;;5059008;28;20264;-76
2021/08/10 06:11:41;;;;;;;11.53;5.63;;;16.50;99.90;;;;;;5049476;28;20246;-78
2021/08/10 06:14:07;;;;;;;10.43;5.47;;;16.50;99.90;;;;;;5062142;28;20259;-79
2021/08/10 06:16:33;;;;;;;11.30;5.63;;;16.50;99.90;;;;;;5055986;28;20355;-78
2021/08/10 06:18:59;;;;;;;12.70;6.80;;;16.60;99.90;;;;;;5056077;28;20186;-78
2021/08/10 06:21:26;;;;;;;9.77;5.67;;;16.70;99.90;;;;;;5055159;28;20236;-78
2021/08/10 06:23:52;;;;;;;8.13;5.17;;;16.80;99.90;;;;;;5056001;28;20183;-77
2021/08/10 06:26:18;;;;;;;12.33;5.67;;;16.70;99.90;;;;;;5055910;28;20202;-78
2021/08/10 06:28:44;;;;;;;8.90;5.30;;;16.70;99.90;;;;;;5055721;28;20196;-78
2021/08/10 06:31:10;;;;;;;15.13;5.80;;;16.80;99.90;;;;;;5055021;28;20234;-77
2021/08/10 06:33:36;;;;;;;10.40;5.87;;;16.70;99.90;;;;;;5056399;28;20174;-78
2021/08/10 06:36:02;;;;;;;11.83;5.47;;;16.70;99.90;;;;;;5055249;28;20173;-77
2021/08/10 06:38:28;;;;;;;14.10;5.30;;;16.60;99.90;;;;;;5058697;28;20241;-77
2021/08/10 06:40:54;;;;;;;15.30;6.30;;;16.70;99.90;;;;;;5061509;28;20200;-78
2021/08/10 06:43:19;;;;;;;9.93;5.50;;;16.70;99.90;;;;;;5055425;28;20269;-78
2021/08/10 06:45:45;;;;;;;10.10;6.10;;;16.80;99.90;;;;;;5054949;28;20255;-78
2021/08/10 06:48:11;;;;;;;13.53;6.00;;;16.70;99.90;;;;;;5054670;28;20652;-78
2021/08/10 06:50:37;;;;;;;12.97;5.67;;;16.70;99.90;;;;;;5054289;28;20181;-80
2021/08/10 06:53:03;;;;;;;12.20;6.10;;;16.80;99.90;;;;;;5054640;28;20539;-79
2021/08/10 06:55:28;;;;;;;13.90;5.93;;;16.70;99.90;;;;;;5054559;28;20175;-78
2021/08/10 06:57:54;;;;;;;8.77;5.13;;;16.80;99.90;;;;;;5054297;28;20255;-80
2021/08/10 07:00:20;;;;;;;8.80;5.60;;;16.80;99.90;;;;;;5036549;28;20712;-77
2021/08/10 07:02:46;;;;;;;7.33;5.13;;;16.80;99.90;;;;;;5051964;28;20180;-79
2021/08/10 07:05:11;;;;;;;11.30;5.00;;;16.90;99.90;;;;;;5054760;28;20584;-77
2021/08/10 07:07:37;;;;;;;12.33;5.13;;;17.00;99.90;;;;;;5036488;28;20249;-77
2021/08/10 07:10:04;;;;;;;11.37;5.27;;;17.10;99.90;;;;;;5054064;28;20170;-78
2021/08/10 07:12:30;;;;;;;7.63;5.13;;;17.10;99.90;;;;;;5054421;28;20535;-78
2021/08/10 07:14:55;;;;;;;10.77;4.80;;;17.20;99.90;;;;;;5055956;28;20172;-80
2021/08/10 07:17:21;;;;;;;8.20;4.63;;;17.30;99.90;;;;;;5055525;28;20287;-80
2021/08/10 07:19:47;;;;;;;10.97;4.80;;;17.30;99.90;;;;;;5054360;28;20263;-80
2021/08/10 07:22:12;;;;;;;9.63;4.60;;;17.40;99.90;;;;;;5054186;28;20701;-82
2021/08/10 07:24:38;;;;;;;8.63;4.73;;;17.30;99.90;;;;;;5057251;28;20227;-80
2021/08/10 07:27:04;;;;;;;8.37;4.80;;;17.30;99.90;;;;;;5054034;28;20550;-79
2021/08/10 07:29:31;;;;;;;7.93;4.53;;;17.20;99.90;;;;;;5054217;28;20182;-80
2021/08/10 07:31:57;;;;;;;9.97;5.37;;;17.40;99.90;;;;;;5054000;28;20710;-79
2021/08/10 07:34:23;;;;;;;8.60;5.07;;;17.50;99.90;;;;;;5054448;28;20169;-77
2021/08/10 07:36:49;;;;;;;9.10;4.93;;;17.50;99.90;;;;;;5058247;28;20201;-79
2021/08/10 07:39:14;;;;;;;7.57;4.73;;;17.50;99.90;;;;;;5053575;28;20641;-79
2021/08/10 07:41:40;;;;;;;7.57;4.47;;;17.50;99.90;;;;;;5053802;28;20165;-80
2021/08/10 07:44:06;;;;;;;9.70;4.53;;;17.50;99.90;;;;;;5053326;28;20248;-82
2021/08/10 07:46:32;;;;;;;8.80;5.00;;;17.60;99.90;;;;;;5054181;28;20266;-79
2021/08/10 07:48:59;;;;;;;7.77;4.03;;;17.70;99.90;;;;;;5053807;28;20189;-77
2021/08/10 07:51:25;;;;;;;10.00;4.80;;;17.80;99.90;;;;;;5055327;28;20167;-78
2021/08/10 07:53:51;;;;;;;11.83;5.37;;;18.00;99.90;;;;;;5055931;28;20178;-81
2021/08/10 07:56:16;;;;;;;8.43;4.00;;;18.20;99.90;;;;;;5073238;28;20211;-81
2021/08/10 07:58:42;;;;;;;6.27;4.27;;;18.40;99.90;;;;;;5063379;28;20249;-81
2021/08/10 08:01:08;;;;;;;7.47;4.33;;;18.40;99.90;;;;;;5054320;28;20577;-80
2021/08/10 08:03:35;;;;;;;8.97;4.70;;;18.50;99.90;;;;;;5054190;28;20177;-79
2021/08/10 08:06:00;;;;;;;6.97;3.90;;;18.70;99.90;;;;;;5054081;28;20196;-81
2021/08/10 08:08:28;;;;;;;8.23;3.80;;;18.70;99.90;;;;;;5053435;28;20168;-79
2021/08/10 08:10:54;;;;;;;6.63;4.30;;;18.90;99.90;;;;;;5053882;28;20173;-79
2021/08/10 08:13:20;;;;;;;6.57;4.10;;;19.00;99.90;;;;;;5053413;28;20175;-79
2021/08/10 08:15:47;;;;;;;5.73;3.90;;;19.10;99.90;;;;;;5058149;28;20234;-77
2021/08/10 08:18:12;;;;;;;8.53;4.27;;;19.20;99.90;;;;;;5067980;28;20235;-78
2021/08/10 08:20:39;;;;;;;7.73;4.20;;;19.50;99.90;;;;;;5069424;28;20175;-79
2021/08/10 08:23:05;;;;;;;8.43;3.57;;;19.60;99.90;;;;;;5061108;28;20178;-79
2021/08/10 08:25:31;;;;;;;6.67;3.97;;;19.80;99.90;;;;;;5055689;28;20197;-78
2021/08/10 08:27:59;;;;;;;6.43;3.77;;;20.00;99.90;;;;;;5053652;28;20168;-81
2021/08/10 08:30:24;;;;;;;6.50;3.93;;;19.90;99.90;;;;;;5053532;28;20624;-81
2021/08/10 08:32:50;;;;;;;7.73;3.63;;;19.90;98.90;;;;;;5053172;28;20176;-81
2021/08/10 08:35:16;;;;;;;5.43;3.27;;;19.90;97.20;;;;;;5051771;28;20185;-79
2021/08/10 08:37:41;;;;;;;5.47;3.50;;;20.10;96.10;;;;;;5052940;28;20540;-80
2021/08/10 08:40:08;;;;;;;7.40;3.90;;;20.10;96.50;;;;;;5036302;28;20674;-79
2021/08/10 08:42:34;;;;;;;4.93;3.30;;;19.90;96.70;;;;;;5053630;28;20178;-78
2021/08/10 08:45:00;;;;;;;5.90;3.33;;;20.00;97.20;;;;;;5053429;28;20203;-82
2021/08/10 08:47:26;;;;;;;9.43;4.00;;;20.10;97.30;;;;;;5053092;28;20620;-82
2021/08/10 08:49:56;;;;;;;4.80;2.93;;;20.30;95.20;;;;;;5053296;28;20168;-79
2021/08/10 08:52:24;;;;;;;5.50;3.33;;;20.30;95.10;;;;;;5052899;28;20183;-80
2021/08/10 08:54:50;;;;;;;5.43;2.90;;;20.30;95.40;;;;;;5052683;28;20183;-80
2021/08/10 08:57:15;;;;;;;5.23;3.40;;;20.30;95.70;;;;;;5052890;28;20573;-82
2021/08/10 08:59:42;;;;;;;5.20;3.13;;;20.30;95.90;;;;;;5052957;28;20619;-82
2021/08/10 09:02:16;;;;;;;5.57;2.87;;;20.40;95.60;;;;;;5053043;28;20644;-83
2021/08/10 09:04:43;;;;;;;4.83;3.23;;;20.40;95.70;;;;;;5052959;28;20553;-83
2021/08/10 09:07:09;;;;;;;5.10;2.97;;;20.40;95.50;;;;;;5034710;28;20727;-84
2021/08/10 09:09:35;;;;;;;5.97;2.97;;;20.30;95.50;;;;;;5034769;28;20262;-82
2021/08/10 09:12:09;;;;;;;6.40;3.13;;;20.50;94.50;;;;;;5051388;28;20283;-81
2021/08/10 09:14:52;;;;;;;7.53;3.60;;;20.70;94.40;;;;;;5053268;28;20183;-81
2021/08/10 09:17:21;;;;;;;4.67;3.40;;;20.70;95.00;;;;;;5052833;28;20235;-82
2021/08/10 09:19:52;;;;;;;6.63;3.57;;;20.80;94.70;;;;;;5052765;28;20166;-81
2021/08/10 09:22:25;;;;;;;5.37;3.40;;;20.80;94.70;;;;;;5052891;28;20858;-82
2021/08/10 09:25:01;;;;;;;6.13;3.50;;;20.70;94.80;;;;;;5052815;28;20161;-78
2021/08/10 09:27:34;;;;;;;6.07;4.00;;;20.80;94.40;;;;;;5055403;28;20185;-77
2021/08/10 09:30:00;;;;;;;5.47;3.07;;;20.80;94.70;;;;;;5056854;28;20532;-79
2021/08/10 09:32:27;;;;;;;5.17;3.27;;;20.90;92.70;;;;;;5056201;28;20169;-78
2021/08/10 09:35:17;;;;;;;5.73;3.03;;;21.00;92.90;;;;;;5055939;28;20218;-79
2021/08/10 09:38:03;;;;;;;6.17;3.57;;;20.90;92.80;;;;;;5056402;28;20726;-78
2021/08/10 09:40:34;;;;;;;7.50;3.20;;;20.90;92.60;;;;;;5056580;28;20165;-79
2021/08/10 09:43:21;;;;;;;5.57;2.83;;;20.90;92.60;;;;;;5056090;28;20187;-79
2021/08/10 09:45:47;;;;;;;4.60;2.83;;;20.70;93.30;;;;;;5056041;28;20183;-79
2021/08/10 09:48:17;;;;;;;5.70;2.73;;;20.70;93.20;;;;;;5056172;28;20186;-81
2021/08/10 09:50:44;;;;;;;6.43;2.63;;;20.80;94.20;;;;;;5056099;28;20176;-79
2021/08/10 09:53:17;;;;;;;4.73;2.53;;;20.70;94.30;;;;;;5056071;28;20262;-79
2021/08/10 09:55:57;;;;;;;5.40;2.87;;;20.80;93.90;;;;;;5056432;28;20175;-77
2021/08/10 09:58:23;;;;;;;5.70;2.60;;;20.80;93.30;;;;;;5056248;28;20214;-77
2021/08/10 10:00:50;;;;;;;4.10;2.50;;;20.90;93.90;;;;;;5054527;28;20168;-80
2021/08/10 10:03:26;;;;;;;4.77;2.80;;;20.80;94.00;;;;;;5038274;28;20177;-78
2021/08/10 10:05:52;;;;;;;5.23;3.10;;;20.80;93.90;;;;;;5064484;28;20159;-78
2021/08/10 10:08:21;;;;;;;4.90;2.77;;;20.70;94.30;;;;;;5075887;28;20171;-78
2021/08/10 10:10:48;;;;;;;5.97;2.70;;;20.70;94.80;;;;;;5062493;28;20172;-80
2021/08/10 10:13:17;;;;;;;6.53;3.00;;;20.70;94.70;;;;;;5056705;28;20167;-79
2021/08/10 10:15:44;;;;;;;4.40;2.70;;;20.60;95.80;;;;;;5056133;28;20192;-79
2021/08/10 10:18:11;;;;;;;8.17;2.87;;;20.40;96.70;;;;;;5055866;28;20217;-79
2021/08/10 10:20:46;;;;;;;5.37;2.80;;;20.60;96.30;;;;;;5055467;28;20179;-77
2021/08/10 10:23:33;;;;;;;5.17;3.10;;;20.90;95.50;;;;;;5055972;28;20169;-79
2021/08/10 10:26:02;;;;;;;4.77;2.93;;;21.10;94.90;;;;;;5037308;28;20201;-79
2021/08/10 10:28:31;;;;;;;3.37;2.40;;;21.30;93.80;;;;;;5055543;28;20169;-79
2021/08/10 10:30:59;;;;;;;4.03;2.60;;;21.40;91.90;;;;;;5054170;28;20214;-77
2021/08/10 10:33:26;;;;;;;5.37;2.50;;;21.40;91.80;;;;;;5057995;28;20168;-76
2021/08/10 10:35:52;;;;;;;4.10;2.30;;;21.30;92.20;;;;;;5067438;28;20162;-79
2021/08/10 10:38:18;;;;;;;3.53;2.10;;;21.20;93.00;;;;;;5074651;28;20220;-81
2021/08/10 10:40:45;;;;;;;3.93;2.50;;;21.30;90.80;;;;;;5067008;28;20184;-78
2021/08/10 10:43:11;;;;;;;3.93;2.40;;;21.50;91.40;;;;;;5054706;28;20190;-78
2021/08/10 10:45:42;;;;;;;4.47;2.23;;;21.50;91.60;;;;;;5053293;28;20190;-81
2021/08/10 10:48:28;;;;;;;4.63;2.40;;;21.60;90.00;;;;;;5054525;28;20169;-81
2021/08/10 10:51:07;;;;;;;3.23;2.03;;;21.50;90.30;;;;;;5041173;28;20189;-79
2021/08/10 10:53:33;;;;;;;7.03;2.33;;;21.50;90.50;;;;;;5054674;28;20167;-81
2021/08/10 10:55:59;;;;;;;4.67;2.03;;;21.50;87.50;;;;;;5054746;28;20174;-80
2021/08/10 10:58:27;;;;;;;4.93;2.10;;;21.50;82.30;;;;;;5054153;28;20298;-81
2021/08/10 11:01:20;;;;;;;6.00;2.30;;;21.40;86.10;;;;;;5054759;28;20196;-77
2021/08/10 11:04:05;;;;;;;3.90;2.50;;;21.30;88.10;;;;;;5063162;28;20165;-81
2021/08/10 11:06:41;;;;;;;5.90;2.37;;;21.30;90.50;;;;;;5074517;28;20179;-78
2021/08/10 11:09:06;;;;;;;4.67;2.20;;;21.30;90.50;;;;;;5069423;28;20189;-79
2021/08/10 11:11:53;;;;;;;5.63;2.47;;;21.40;88.50;;;;;;5060145;28;20176;-82
2021/08/10 11:14:36;;;;;;;4.37;2.53;;;21.60;87.80;;;;;;5058395;28;20587;-78
2021/08/10 11:17:12;;;;;;;4.90;2.37;;;21.60;87.30;;;;;;5054216;28;20200;-81
2021/08/10 11:19:41;;;;;;;4.17;2.47;;;21.70;88.20;;;;;;5054265;28;20535;-81
2021/08/10 11:22:15;;;;;;;3.87;2.63;;;21.80;85.80;;;;;;5054413;28;20169;-80
2021/08/10 11:24:47;;;;;;;6.07;2.50;;;21.90;84.40;;;;;;5054844;28;20170;-82
2021/08/10 11:27:35;;;;;;;5.00;2.87;;;22.00;78.50;;;;;;5055264;28;20227;-78
2021/08/10 11:30:04;;;;;;;3.30;2.40;;;21.80;80.80;;;;;;5068035;28;20174;-80
2021/08/10 11:32:50;;;;;;;6.67;4.63;;;21.70;79.50;;;;;;5066085;28;20191;-77
2021/08/10 11:35:34;;;;;;;7.37;3.60;;;21.80;82.50;;;;;;5059959;28;20193;-79
2021/08/10 11:38:06;;;;;;;6.67;2.73;;;21.50;90.70;;;;;;5061778;28;20215;-82
2021/08/10 11:40:58;;;;;;;4.53;2.70;;;20.80;93.60;;;;;;5054502;28;20165;-82
2021/08/10 11:43:34;;;;;;;2.93;2.23;;;20.80;93.70;;;;;;5054053;28;20164;-82
2021/08/10 11:46:02;;;;;;;4.17;2.63;;;20.60;92.00;;;;;;5035637;28;20210;-79
2021/08/10 11:48:44;;;;;;;4.23;2.40;;;20.50;92.70;;;;;;5051678;28;20535;-77
2021/08/10 11:51:17;;;;;;;3.43;2.60;;;20.20;93.70;;;;;;5036631;28;20169;-79
2021/08/10 11:53:42;;;;;;;3.60;2.63;;;20.00;95.00;;;;;;5053694;28;20591;-80
2021/08/10 11:56:42;;;;;;;3.97;2.90;;;20.00;95.00;;;;;;5053575;28;20205;-79
2021/08/10 11:59:09;;;;;;;3.33;2.83;;;20.00;95.70;;;;;;5009419;28;20616;-81
2021/08/10 12:01:38;;;;;;;4.30;2.93;;;20.10;96.30;;;;;;5060933;28;20197;-81
2021/08/10 12:04:15;;;;;;;4.37;3.03;;;20.40;95.90;;;;;;5057085;28;20179;-78
2021/08/10 12:06:43;;;;;;;5.03;3.00;;;20.60;94.80;;;;;;5053703;28;20175;-81
2021/08/10 12:09:15;;;;;;;4.50;3.40;;;20.60;94.80;;;;;;5054198;28;20202;-81
2021/08/10 12:11:42;;;;;;;4.13;3.03;;;20.70;93.70;;;;;;5053891;28;20229;-80
2021/08/10 12:14:15;;;;;;;5.03;3.03;;;20.70;93.80;;;;;;5054565;28;20183;-83
2021/08/10 12:17:00;;;;;;;4.70;3.40;;;20.60;94.00;;;;;;5054443;28;20516;-84
2021/08/10 12:19:29;;;;;;;3.63;3.10;;;20.60;94.20;;;;;;5053900;28;20185;-81
2021/08/10 12:21:55;;;;;;;6.93;3.70;;;20.70;94.30;;;;;;5036988;28;20198;-82
2021/08/10 12:24:29;;;;;;;5.20;3.90;;;20.80;94.20;;;;;;5054059;28;20636;-78
2021/08/10 12:26:55;;;;;;;4.93;3.63;;;20.90;93.50;;;;;;5053716;28;20197;-80
2021/08/10 12:29:30;;;;;;;4.50;3.87;;;21.00;93.50;;;;;;5035217;28;20187;-80
2021/08/10 12:31:56;;;;;;;5.53;3.57;;;21.10;93.50;;;;;;5053465;28;20170;-82
2021/08/10 12:34:29;;;;;;;6.60;4.17;;;21.10;93.80;;;;;;5053027;28;20651;-80
2021/08/10 12:36:54;;;;;;;5.00;3.30;;;21.20;93.70;;;;;;5052950;28;20590;-78
2021/08/10 12:39:21;;;;;;;4.23;3.40;;;21.40;93.30;;;;;;5052840;28;20176;-79
2021/08/10 12:41:47;;;;;;;5.43;3.70;;;21.70;92.60;;;;;;5053112;28;20163;-80
2021/08/10 12:44:13;;;;;;;4.30;3.50;;;21.80;91.10;;;;;;5052349;28;20172;-78
2021/08/10 12:46:40;;;;;;;6.90;4.00;;;21.90;91.10;;;;;;5053393;28;20251;-77
2021/08/10 12:49:12;;;;;;;4.67;3.60;;;22.00;90.60;;;;;;5035194;28;20170;-78
2021/08/10 12:52:01;;;;;;;5.53;4.13;;;22.10;90.00;;;;;;5034780;28;20177;-80
2021/08/10 12:54:30;;;;;;;5.50;3.80;;;22.10;90.50;;;;;;5034667;28;20169;-78